createdAt,value
2023-01-20T00:01:37.911Z,-0.10
2023-01-20T00:04:05.871Z,0.00
2023-01-20T00:06:32.862Z,0.00
2023-01-20T00:09:01.296Z,-0.10
2023-01-20T00:11:28.794Z,0.00
2023-01-20T00:13:57.279Z,0.00
2023-01-20T00:16:24.143Z,-0.10
2023-01-20T00:18:50.810Z,-0.10
2023-01-20T00:21:18.060Z,-0.10
2023-01-20T00:23:46.539Z,-0.10
2023-01-20T00:26:19.321Z,-0.20
2023-01-20T00:28:46.986Z,-0.20
2023-01-20T00:31:19.493Z,-0.20
2023-01-20T00:33:48.771Z,-0.20
2023-01-20T00:36:17.499Z,-0.10
2023-01-20T00:38:44.623Z,-0.10
2023-01-20T00:41:11.592Z,-0.10
2023-01-20T00:43:38.463Z,0.00
2023-01-20T00:46:06.285Z,0.00
2023-01-20T00:48:33.886Z,0.10
2023-01-20T00:51:01.170Z,0.20
2023-01-20T00:53:27.798Z,0.10
2023-01-20T00:55:54.499Z,0.20
2023-01-20T00:58:21.158Z,0.20
2023-01-20T01:00:49.055Z,0.20
2023-01-20T01:03:15.953Z,0.30
2023-01-20T01:05:43.012Z,0.30
2023-01-20T01:08:09.955Z,0.40
2023-01-20T01:10:36.612Z,0.40
2023-01-20T01:13:04.892Z,0.40
2023-01-20T01:15:31.506Z,0.40
2023-01-20T01:17:59.083Z,0.50
2023-01-20T01:20:26.809Z,0.50
2023-01-20T01:22:53.466Z,0.50
2023-01-20T01:25:20.374Z,0.50
2023-01-20T01:27:47.089Z,0.50
2023-01-20T01:30:13.832Z,0.50
2023-01-20T01:32:40.582Z,0.50
2023-01-20T01:35:07.445Z,0.50
2023-01-20T01:37:34.050Z,0.50
2023-01-20T01:40:00.792Z,0.50
2023-01-20T01:42:27.427Z,0.50
2023-01-20T01:45:12.929Z,0.50
2023-01-20T01:48:06.758Z,0.50
2023-01-20T01:50:46.889Z,0.50
2023-01-20T01:53:14.959Z,0.50
2023-01-20T01:55:51.044Z,0.50
2023-01-20T01:58:24.093Z,0.50
2023-01-20T02:00:51.225Z,0.50
2023-01-20T02:03:18.146Z,0.40
2023-01-20T02:05:46.246Z,0.50
2023-01-20T02:08:13.063Z,0.40
2023-01-20T02:10:39.716Z,0.40
2023-01-20T02:13:06.712Z,0.40
2023-01-20T02:15:53.784Z,0.40
2023-01-20T02:18:53.168Z,0.40
2023-01-20T02:21:42.924Z,0.30
2023-01-20T02:24:35.354Z,0.50
2023-01-20T02:27:01.984Z,0.50
2023-01-20T02:30:03.281Z,0.40
2023-01-20T02:32:44.397Z,0.40
2023-01-20T02:35:46.283Z,0.40
2023-01-20T02:38:24.263Z,0.30
2023-01-20T02:40:59.725Z,0.30
2023-01-20T02:43:44.836Z,0.30
2023-01-20T02:46:33.038Z,0.30
2023-01-20T02:49:14.480Z,0.30
2023-01-20T02:52:36.650Z,0.30
2023-01-20T02:55:19.305Z,0.40
2023-01-20T02:57:50.845Z,0.40
2023-01-20T03:00:29.262Z,0.40
2023-01-20T03:02:57.941Z,0.40
2023-01-20T03:05:31.788Z,0.40
2023-01-20T03:08:01.503Z,0.30
2023-01-20T03:10:32.479Z,0.40
2023-01-20T03:13:21.627Z,0.30
2023-01-20T03:16:06.221Z,0.40
2023-01-20T03:18:34.160Z,0.40
2023-01-20T03:21:02.861Z,0.30
2023-01-20T03:23:33.275Z,0.30
2023-01-20T03:26:00.843Z,0.30
2023-01-20T03:28:27.447Z,0.30
2023-01-20T03:30:57.374Z,0.30
2023-01-20T03:33:25.044Z,0.40
2023-01-20T03:35:52.258Z,0.40
2023-01-20T03:38:18.983Z,0.40
2023-01-20T03:40:57.155Z,0.40
2023-01-20T03:43:43.359Z,0.30
2023-01-20T03:46:19.464Z,0.40
2023-01-20T03:48:46.111Z,0.40
2023-01-20T03:51:21.022Z,0.30
2023-01-20T03:53:59.864Z,0.20
2023-01-20T03:56:45.741Z,0.20
2023-01-20T03:59:14.546Z,0.20
2023-01-20T04:01:44.380Z,0.20
2023-01-20T04:04:16.108Z,0.30
2023-01-20T04:06:44.125Z,0.30
2023-01-20T04:09:17.139Z,0.40
2023-01-20T04:11:43.778Z,0.30
2023-01-20T04:14:10.747Z,0.30
2023-01-20T04:16:37.979Z,0.30
2023-01-20T04:19:04.651Z,0.30
2023-01-20T04:21:45.277Z,0.30
2023-01-20T04:24:16.718Z,0.20
2023-01-20T04:26:43.535Z,0.30
2023-01-20T04:29:12.985Z,0.30
2023-01-20T04:31:40.321Z,0.30
2023-01-20T04:34:07.773Z,0.40
2023-01-20T04:36:34.377Z,0.30
2023-01-20T04:39:01.040Z,0.30
2023-01-20T04:41:27.682Z,0.30
2023-01-20T04:43:54.348Z,0.20
2023-01-20T04:46:21.241Z,0.20
2023-01-20T04:48:48.021Z,0.30
2023-01-20T04:51:15.290Z,0.20
2023-01-20T04:53:41.962Z,0.30
2023-01-20T04:56:12.980Z,0.20
2023-01-20T04:58:40.102Z,0.30
2023-01-20T05:01:06.931Z,0.20
2023-01-20T05:03:33.938Z,0.30
2023-01-20T05:06:00.597Z,0.20
2023-01-20T05:08:27.335Z,0.30
2023-01-20T05:10:53.983Z,0.20
2023-01-20T05:13:20.614Z,0.30
2023-01-20T05:15:47.288Z,0.30
2023-01-20T05:18:13.965Z,0.30
2023-01-20T05:20:40.757Z,0.30
2023-01-20T05:23:07.529Z,0.40
2023-01-20T05:25:34.141Z,0.30
2023-01-20T05:28:00.777Z,0.40
2023-01-20T05:30:27.567Z,0.40
2023-01-20T05:32:54.342Z,0.50
2023-01-20T05:35:20.953Z,0.40
2023-01-20T05:37:47.641Z,0.40
2023-01-20T05:40:14.487Z,0.40
2023-01-20T05:42:41.142Z,0.40
2023-01-20T05:45:09.287Z,0.40
2023-01-20T05:47:36.037Z,0.40
2023-01-20T05:50:04.174Z,0.40
2023-01-20T05:52:30.919Z,0.30
2023-01-20T05:54:57.818Z,0.40
2023-01-20T05:57:25.831Z,0.40
2023-01-20T05:59:52.832Z,0.40
2023-01-20T06:02:19.999Z,0.30
2023-01-20T06:04:47.156Z,0.30
2023-01-20T06:07:15.254Z,0.40
2023-01-20T06:09:42.007Z,0.40
2023-01-20T06:12:09.002Z,0.40
2023-01-20T06:14:35.859Z,0.40
2023-01-20T06:17:02.532Z,0.50
2023-01-20T06:19:29.370Z,0.50
2023-01-20T06:21:56.087Z,0.40
2023-01-20T06:24:22.714Z,0.40
2023-01-20T06:26:54.436Z,0.50
2023-01-20T06:29:22.328Z,0.50
2023-01-20T06:31:48.976Z,0.40
2023-01-20T06:34:15.622Z,0.40
2023-01-20T06:36:42.252Z,0.50
2023-01-20T06:39:08.932Z,0.40
2023-01-20T06:41:35.617Z,0.40
2023-01-20T06:44:02.291Z,0.50
2023-01-20T06:46:28.998Z,0.50
2023-01-20T06:49:00.442Z,0.50
2023-01-20T06:51:28.974Z,0.40
2023-01-20T06:53:56.040Z,0.50
2023-01-20T06:56:23.017Z,0.40
2023-01-20T06:58:49.700Z,0.40
2023-01-20T07:01:26.001Z,0.50
2023-01-20T07:03:53.544Z,0.50
2023-01-20T07:06:31.362Z,0.50
2023-01-20T07:08:59.542Z,0.50
2023-01-20T07:11:27.017Z,0.40
2023-01-20T07:13:53.636Z,0.40
2023-01-20T07:16:20.634Z,0.50
2023-01-20T07:18:48.922Z,0.50
2023-01-20T07:21:16.151Z,0.50
2023-01-20T07:23:42.798Z,0.50
2023-01-20T07:26:20.280Z,0.50
2023-01-20T07:28:47.905Z,0.60
2023-01-20T07:31:17.227Z,0.60
2023-01-20T07:33:44.022Z,0.50
2023-01-20T07:36:11.989Z,0.60
2023-01-20T07:38:38.855Z,0.60
2023-01-20T07:41:08.488Z,0.60
2023-01-20T07:43:35.157Z,0.60
2023-01-20T07:46:03.575Z,0.60
2023-01-20T07:48:32.390Z,0.60
2023-01-20T07:51:07.265Z,0.60
2023-01-20T07:53:37.056Z,0.60
2023-01-20T07:56:12.092Z,0.60
2023-01-20T07:58:38.861Z,0.60
2023-01-20T08:01:10.928Z,0.60
2023-01-20T08:03:37.660Z,0.60
2023-01-20T08:06:09.568Z,0.50
2023-01-20T08:08:36.783Z,0.50
2023-01-20T08:11:04.215Z,0.60
2023-01-20T08:13:31.586Z,0.60
2023-01-20T08:16:03.001Z,0.50
2023-01-20T08:18:30.394Z,0.50
2023-01-20T08:20:57.070Z,0.50
2023-01-20T08:23:23.762Z,0.50
2023-01-20T08:25:58.494Z,0.60
2023-01-20T08:28:25.634Z,0.60
2023-01-20T08:30:52.382Z,0.60
2023-01-20T08:33:19.299Z,0.60
2023-01-20T08:35:45.998Z,0.60
2023-01-20T08:38:12.886Z,0.60
2023-01-20T08:40:43.647Z,0.60
2023-01-20T08:43:10.243Z,0.60
2023-01-20T08:45:37.017Z,0.60
2023-01-20T08:48:03.842Z,0.60
2023-01-20T08:50:30.495Z,0.60
2023-01-20T08:52:57.106Z,0.60
2023-01-20T08:55:23.713Z,0.70
2023-01-20T08:57:50.304Z,0.70
2023-01-20T09:00:17.765Z,0.70
2023-01-20T09:02:44.491Z,0.70
2023-01-20T09:05:11.632Z,0.70
2023-01-20T09:07:38.315Z,0.70
2023-01-20T09:10:05.546Z,0.70
2023-01-20T09:12:32.511Z,0.70
2023-01-20T09:14:59.241Z,0.70
2023-01-20T09:17:25.934Z,0.70
2023-01-20T09:19:52.846Z,0.70
2023-01-20T09:22:19.505Z,0.70
2023-01-20T09:24:46.354Z,0.70
2023-01-20T09:27:12.972Z,0.70
2023-01-20T09:29:39.623Z,0.60
2023-01-20T09:32:06.428Z,0.70
2023-01-20T09:34:34.202Z,0.60
2023-01-20T09:37:22.457Z,0.60
2023-01-20T09:40:08.365Z,0.60
2023-01-20T09:43:18.024Z,0.60
2023-01-20T09:45:59.924Z,0.60
2023-01-20T09:49:27.150Z,0.60
2023-01-20T09:52:27.112Z,0.60
2023-01-20T09:55:02.955Z,0.70
2023-01-20T09:57:37.328Z,0.70
2023-01-20T10:00:17.373Z,1.70
2023-01-20T10:02:50.408Z,0.70
2023-01-20T10:05:23.668Z,0.70
2023-01-20T10:07:56.531Z,0.70
2023-01-20T10:10:32.860Z,0.80
2023-01-20T10:13:14.281Z,0.80
2023-01-20T10:15:47.387Z,0.80
2023-01-20T10:18:41.535Z,0.80
2023-01-20T10:21:11.184Z,0.80
2023-01-20T10:23:45.356Z,0.80
2023-01-20T10:26:41.206Z,0.80
2023-01-20T10:29:16.196Z,0.80
2023-01-20T10:31:53.356Z,0.80
2023-01-20T10:34:21.297Z,0.80
2023-01-20T10:37:00.757Z,0.80
2023-01-20T10:39:56.023Z,0.90
2023-01-20T10:42:24.672Z,0.90
2023-01-20T10:44:52.553Z,0.90
2023-01-20T10:47:27.357Z,0.90
2023-01-20T10:50:13.099Z,0.90
2023-01-20T10:52:46.535Z,0.90
2023-01-20T10:55:29.576Z,1.00
2023-01-20T10:58:16.782Z,0.90
2023-01-20T11:00:44.210Z,0.90
2023-01-20T11:03:15.625Z,0.90
2023-01-20T11:05:43.090Z,0.90
2023-01-20T11:08:25.896Z,0.90
2023-01-20T11:10:59.289Z,0.90
2023-01-20T11:13:26.190Z,1.00
2023-01-20T11:15:59.644Z,0.90
2023-01-20T11:18:29.492Z,1.00
2023-01-20T11:20:56.420Z,1.00
2023-01-20T11:23:40.789Z,1.10
2023-01-20T11:26:21.751Z,1.00
2023-01-20T11:29:10.231Z,1.10
2023-01-20T11:31:54.373Z,1.10
2023-01-20T11:34:28.328Z,1.10
2023-01-20T11:37:20.131Z,1.10
2023-01-20T11:39:49.783Z,1.10
2023-01-20T11:42:27.797Z,1.10
2023-01-20T11:45:19.329Z,1.10
2023-01-20T11:47:58.802Z,1.10
2023-01-20T11:50:38.774Z,1.20
2023-01-20T11:53:12.814Z,1.20
2023-01-20T11:55:50.105Z,1.10
2023-01-20T11:58:20.021Z,1.20
2023-01-20T12:00:47.190Z,1.20
2023-01-20T12:03:33.354Z,1.20
2023-01-20T12:06:03.255Z,1.30
2023-01-20T12:08:55.246Z,1.20
2023-01-20T12:11:49.571Z,1.20
2023-01-20T12:14:45.280Z,1.20
2023-01-20T12:17:48.599Z,1.10
2023-01-20T12:20:30.019Z,1.10
2023-01-20T12:23:14.502Z,1.10
2023-01-20T12:25:55.165Z,1.20
2023-01-20T12:28:47.667Z,1.10
2023-01-20T12:31:20.218Z,1.10
2023-01-20T12:33:54.147Z,1.20
2023-01-20T12:36:49.512Z,1.20
2023-01-20T12:39:51.978Z,1.20
2023-01-20T12:43:08.989Z,1.20
2023-01-20T12:46:09.097Z,1.30
2023-01-20T12:49:11.704Z,1.30
2023-01-20T12:51:43.556Z,1.30
2023-01-20T12:54:35.841Z,1.30
2023-01-20T12:57:23.626Z,1.30
2023-01-20T12:59:59.228Z,1.30
2023-01-20T13:03:01.540Z,1.30
2023-01-20T13:06:01.115Z,1.30
2023-01-20T13:08:36.522Z,1.30
2023-01-20T13:11:15.255Z,1.30
2023-01-20T13:14:04.730Z,1.40
2023-01-20T13:16:59.532Z,1.40
2023-01-20T13:19:39.828Z,1.50
2023-01-20T13:22:20.114Z,1.40
2023-01-20T13:24:50.141Z,1.40
2023-01-20T13:27:29.291Z,1.30
2023-01-20T13:29:58.579Z,1.30
2023-01-20T13:32:43.625Z,1.40
2023-01-20T13:35:30.490Z,1.40
2023-01-20T13:38:00.050Z,1.40
2023-01-20T13:40:35.677Z,1.40
2023-01-20T13:43:23.807Z,1.40
2023-01-20T13:46:05.835Z,1.40
2023-01-20T13:49:12.801Z,1.80
2023-01-20T13:51:39.370Z,1.30
2023-01-20T13:54:25.116Z,1.30
2023-01-20T13:56:52.579Z,1.20
2023-01-20T13:59:19.245Z,1.30
2023-01-20T14:01:45.899Z,1.30
2023-01-20T14:04:18.898Z,1.30
2023-01-20T14:06:50.852Z,1.30
2023-01-20T14:09:20.804Z,1.40
2023-01-20T14:11:52.493Z,1.40
2023-01-20T14:14:21.066Z,1.40
2023-01-20T14:16:47.783Z,1.40
2023-01-20T14:19:34.916Z,1.40
2023-01-20T14:22:04.066Z,1.50
2023-01-20T14:24:36.703Z,1.50
2023-01-20T14:27:17.175Z,1.50
2023-01-20T14:29:45.130Z,1.50
2023-01-20T14:32:23.737Z,1.50
2023-01-20T14:34:51.293Z,1.50
2023-01-20T14:37:26.910Z,1.50
2023-01-20T14:39:56.685Z,1.40
2023-01-20T14:42:24.396Z,1.40
2023-01-20T14:44:53.354Z,1.50
2023-01-20T14:47:22.088Z,1.50
2023-01-20T14:49:51.196Z,1.40
2023-01-20T14:52:29.400Z,1.40
2023-01-20T14:54:57.001Z,1.30
2023-01-20T14:57:45.777Z,1.30
2023-01-20T15:00:20.892Z,1.30
2023-01-20T15:03:01.047Z,1.30
2023-01-20T15:05:36.748Z,1.30
2023-01-20T15:08:29.545Z,1.30
2023-01-20T15:11:18.274Z,1.40
2023-01-20T15:14:05.042Z,1.40
2023-01-20T15:16:38.803Z,1.40
2023-01-20T15:19:20.071Z,1.40
2023-01-20T15:21:51.698Z,1.40
2023-01-20T15:24:30.608Z,1.40
2023-01-20T15:27:00.391Z,1.40
2023-01-20T15:29:35.575Z,1.40
2023-01-20T15:32:09.842Z,1.40
2023-01-20T15:34:36.525Z,1.50
2023-01-20T15:37:11.168Z,1.50
2023-01-20T15:39:37.877Z,1.50
2023-01-20T15:42:08.970Z,1.50
2023-01-20T15:44:35.639Z,1.50
2023-01-20T15:47:02.351Z,1.60
2023-01-20T15:49:29.006Z,1.60
2023-01-20T15:51:56.188Z,1.60
2023-01-20T15:54:22.887Z,1.60
2023-01-20T15:56:49.538Z,1.60
2023-01-20T15:59:18.480Z,1.60
2023-01-20T16:01:50.026Z,1.60
2023-01-20T16:04:18.307Z,1.60
2023-01-20T16:06:45.090Z,1.60
2023-01-20T16:09:24.666Z,1.60
2023-01-20T16:11:51.539Z,1.60
2023-01-20T16:14:18.182Z,1.70
2023-01-20T16:16:44.872Z,1.70
2023-01-20T16:19:13.640Z,1.70
2023-01-20T16:21:40.578Z,1.80
2023-01-20T16:24:07.454Z,1.80
2023-01-20T16:26:35.666Z,1.70
2023-01-20T16:29:02.634Z,1.80
2023-01-20T16:31:29.481Z,1.70
2023-01-20T16:33:56.476Z,1.70
2023-01-20T16:36:25.547Z,1.80
2023-01-20T16:38:52.250Z,1.70
2023-01-20T16:41:23.894Z,1.70
2023-01-20T16:43:51.917Z,1.70
2023-01-20T16:46:22.641Z,1.70
2023-01-20T16:48:50.115Z,1.70
2023-01-20T16:51:22.648Z,1.60
2023-01-20T16:53:49.603Z,1.70
2023-01-20T16:56:28.561Z,1.70
2023-01-20T16:58:59.461Z,1.70
2023-01-20T17:01:26.462Z,1.70
2023-01-20T17:03:58.603Z,1.70
2023-01-20T17:06:28.171Z,1.70
2023-01-20T17:08:56.619Z,1.70
2023-01-20T17:11:29.043Z,1.70
2023-01-20T17:13:56.363Z,1.70
2023-01-20T17:16:26.009Z,1.70
2023-01-20T17:18:55.657Z,1.60
2023-01-20T17:21:23.392Z,1.60
2023-01-20T17:23:59.012Z,1.60
2023-01-20T17:26:26.262Z,1.60
2023-01-20T17:29:04.299Z,1.60
2023-01-20T17:31:34.411Z,1.60
2023-01-20T17:34:01.135Z,1.60
2023-01-20T17:36:29.503Z,1.60
2023-01-20T17:38:57.448Z,1.60
2023-01-20T17:41:24.105Z,1.60
2023-01-20T17:43:50.797Z,1.60
2023-01-20T17:46:20.235Z,1.50
2023-01-20T17:48:47.241Z,1.50
2023-01-20T17:51:24.982Z,1.50
2023-01-20T17:53:52.127Z,1.50
2023-01-20T17:56:20.341Z,1.40
2023-01-20T17:58:48.070Z,1.30
2023-01-20T18:01:20.110Z,1.30
2023-01-20T18:03:49.175Z,1.20
2023-01-20T18:06:17.260Z,1.20
2023-01-20T18:08:44.954Z,1.20
2023-01-20T18:11:21.619Z,1.20
2023-01-20T18:13:49.944Z,1.10
2023-01-20T18:16:18.753Z,1.10
2023-01-20T18:18:47.172Z,1.10
2023-01-20T18:21:19.811Z,1.00
2023-01-20T18:23:47.722Z,1.00
2023-01-20T18:26:16.590Z,1.00
2023-01-20T18:28:43.543Z,0.90
2023-01-20T18:31:16.435Z,0.80
2023-01-20T18:33:48.473Z,0.80
2023-01-20T18:36:26.967Z,0.80
2023-01-20T18:39:13.481Z,0.70
2023-01-20T18:41:40.588Z,0.80
2023-01-20T18:44:07.972Z,0.70
2023-01-20T18:46:35.674Z,0.60
2023-01-20T18:49:03.158Z,0.60
2023-01-20T18:51:30.675Z,0.60
2023-01-20T18:54:04.769Z,0.50
2023-01-20T18:56:33.237Z,0.50
2023-01-20T18:59:00.690Z,0.50
2023-01-20T19:01:30.083Z,0.40
2023-01-20T19:03:57.006Z,0.40
2023-01-20T19:06:25.581Z,0.40
2023-01-20T19:08:52.497Z,0.30
2023-01-20T19:11:22.442Z,0.30
2023-01-20T19:13:50.333Z,0.30
2023-01-20T19:16:18.826Z,0.30
2023-01-20T19:18:51.421Z,0.30
2023-01-20T19:21:18.111Z,0.20
2023-01-20T19:23:48.785Z,0.20
2023-01-20T19:26:18.543Z,0.20
2023-01-20T19:28:46.674Z,0.20
2023-01-20T19:31:18.695Z,0.20
2023-01-20T19:33:46.306Z,0.20
2023-01-20T19:36:15.835Z,0.10
2023-01-20T19:38:43.215Z,0.10
2023-01-20T19:41:22.133Z,0.10
2023-01-20T19:43:55.394Z,0.10
2023-01-20T19:46:25.452Z,0.10
2023-01-20T19:48:53.868Z,0.00
2023-01-20T19:51:20.709Z,0.00
2023-01-20T19:53:50.139Z,0.00
2023-01-20T19:56:18.855Z,0.00
2023-01-20T19:58:47.320Z,0.00
2023-01-20T20:01:17.175Z,0.00
2023-01-20T20:03:44.468Z,-0.10
2023-01-20T20:06:29.308Z,0.00
2023-01-20T20:08:59.200Z,0.00
2023-01-20T20:11:27.634Z,0.00
2023-01-20T20:13:55.784Z,-0.10
2023-01-20T20:16:23.679Z,-0.10
2023-01-20T20:18:51.443Z,-0.10
2023-01-20T20:21:18.633Z,-0.10
2023-01-20T20:23:48.861Z,-0.20
2023-01-20T20:26:15.476Z,-0.20
2023-01-20T20:28:42.255Z,-0.20
2023-01-20T20:31:09.241Z,-0.20
2023-01-20T20:33:36.185Z,-0.20
2023-01-20T20:36:12.959Z,-0.20
2023-01-20T20:38:39.682Z,-0.20
2023-01-20T20:41:10.408Z,-0.20
2023-01-20T20:43:38.533Z,-0.20
2023-01-20T20:46:07.107Z,-0.20
2023-01-20T20:48:34.381Z,-0.20
2023-01-20T20:51:09.868Z,-0.30
2023-01-20T20:53:36.594Z,-0.30
2023-01-20T20:56:08.523Z,-0.20
2023-01-20T20:58:35.787Z,-0.30
2023-01-20T21:01:08.899Z,-0.30
2023-01-20T21:03:35.638Z,-0.30
2023-01-20T21:06:02.366Z,-0.30
2023-01-20T21:08:29.403Z,-0.30
2023-01-20T21:11:01.016Z,-0.30
2023-01-20T21:13:28.690Z,-0.30
2023-01-20T21:16:04.455Z,-0.30
2023-01-20T21:18:31.362Z,-0.40
2023-01-20T21:21:01.918Z,-0.30
2023-01-20T21:23:29.592Z,-0.30
2023-01-20T21:26:04.076Z,-0.40
2023-01-20T21:28:36.796Z,-0.40
2023-01-20T21:31:10.053Z,-0.40
2023-01-20T21:33:41.415Z,-0.40
2023-01-20T21:36:09.658Z,-0.50
2023-01-20T21:38:37.462Z,-0.50
2023-01-20T21:41:09.834Z,-0.50
2023-01-20T21:43:57.530Z,-0.50
2023-01-20T21:46:25.216Z,-0.50
2023-01-20T21:49:10.453Z,-0.50
2023-01-20T21:51:56.089Z,-0.50
2023-01-20T21:54:22.710Z,-0.50
2023-01-20T21:56:51.454Z,-0.50
2023-01-20T21:59:18.160Z,-0.50
2023-01-20T22:01:44.862Z,-0.50
2023-01-20T22:04:11.645Z,-0.50
2023-01-20T22:06:38.338Z,-0.50
2023-01-20T22:09:05.111Z,-0.60
2023-01-20T22:11:31.791Z,-0.60
2023-01-20T22:13:58.811Z,-0.60
2023-01-20T22:16:26.246Z,-0.60
2023-01-20T22:18:53.217Z,-0.60
2023-01-20T22:21:21.511Z,-0.60
2023-01-20T22:23:48.512Z,-0.60
2023-01-20T22:26:15.317Z,-0.60
2023-01-20T22:28:42.248Z,-0.60
2023-01-20T22:31:11.715Z,-0.60
2023-01-20T22:33:38.514Z,-0.60
2023-01-20T22:36:06.439Z,-0.70
2023-01-20T22:38:34.055Z,-0.70
2023-01-20T22:41:05.492Z,-0.70
2023-01-20T22:43:33.779Z,-0.70
2023-01-20T22:46:02.349Z,-0.70
2023-01-20T22:48:31.465Z,-0.80
2023-01-20T22:51:13.291Z,-0.80
2023-01-20T22:53:40.726Z,-0.80
2023-01-20T22:56:12.091Z,-0.70
2023-01-20T22:58:39.265Z,-0.80
2023-01-20T23:01:15.468Z,-0.80
2023-01-20T23:03:42.562Z,-0.80
2023-01-20T23:06:10.801Z,-0.80
2023-01-20T23:08:38.598Z,-0.80
2023-01-20T23:11:09.023Z,-0.90
2023-01-20T23:13:35.915Z,-0.90
2023-01-20T23:16:04.631Z,-0.90
2023-01-20T23:18:32.161Z,-0.90
2023-01-20T23:20:59.442Z,-0.90
2023-01-20T23:23:27.831Z,-0.90
2023-01-20T23:26:17.939Z,-1.10
2023-01-20T23:28:45.818Z,-0.90
2023-01-20T23:31:15.463Z,-1.00
2023-01-20T23:33:43.712Z,-0.90
2023-01-20T23:36:15.982Z,-1.00
2023-01-20T23:38:43.525Z,-1.00
2023-01-20T23:41:11.103Z,-1.00
2023-01-20T23:43:37.843Z,-1.00
2023-01-20T23:46:06.045Z,-1.00
2023-01-20T23:48:33.813Z,-1.00
2023-01-20T23:51:01.825Z,-1.00
2023-01-20T23:53:30.645Z,-1.00
2023-01-20T23:56:05.989Z,-1.00
2023-01-20T23:58:33.149Z,-1.10
